createdAt,value
2022-10-13T00:01:17.436Z,69.00
2022-10-13T00:03:48.478Z,68.10
2022-10-13T00:06:25.762Z,68.10
2022-10-13T00:08:54.645Z,68.90
2022-10-13T00:11:24.794Z,69.50
2022-10-13T00:13:54.934Z,69.50
2022-10-13T00:16:23.025Z,69.00
2022-10-13T00:18:50.812Z,69.50
2022-10-13T00:21:20.202Z,69.60
2022-10-13T00:23:49.865Z,69.60
2022-10-13T00:26:23.401Z,69.30
2022-10-13T00:28:52.791Z,69.60
2022-10-13T00:31:21.757Z,69.10
2022-10-13T00:33:49.433Z,70.20
2022-10-13T00:36:19.825Z,70.10
2022-10-13T00:38:47.624Z,70.80
2022-10-13T00:41:15.647Z,70.70
2022-10-13T00:43:59.972Z,69.80
2022-10-13T00:46:29.952Z,69.50
2022-10-13T00:49:00.769Z,70.30
2022-10-13T00:51:34.137Z,70.80
2022-10-13T00:54:03.350Z,70.70
2022-10-13T00:56:31.535Z,70.60
2022-10-13T00:59:01.223Z,70.50
2022-10-13T01:01:29.091Z,70.60
2022-10-13T01:03:56.529Z,70.10
2022-10-13T01:06:24.443Z,70.10
2022-10-13T01:08:51.885Z,70.20
2022-10-13T01:11:43.907Z,70.50
2022-10-13T01:14:20.447Z,70.80
2022-10-13T01:16:57.998Z,70.60
2022-10-13T01:19:51.195Z,70.60
2022-10-13T01:22:38.271Z,70.00
2022-10-13T01:25:20.038Z,70.50
2022-10-13T01:28:04.564Z,70.30
2022-10-13T01:30:35.673Z,70.10
2022-10-13T01:33:26.482Z,70.80
2022-10-13T01:36:16.428Z,70.00
2022-10-13T01:38:51.443Z,70.60
2022-10-13T01:41:25.782Z,70.50
2022-10-13T01:44:00.257Z,71.10
2022-10-13T01:46:32.364Z,71.10
2022-10-13T01:49:02.647Z,71.50
2022-10-13T01:51:31.608Z,71.10
2022-10-13T01:53:59.598Z,70.30
2022-10-13T01:56:26.924Z,71.30
2022-10-13T01:58:56.460Z,71.30
2022-10-13T02:01:47.848Z,71.70
2022-10-13T02:04:28.754Z,71.10
2022-10-13T02:07:04.317Z,71.60
2022-10-13T02:09:39.861Z,72.10
2022-10-13T02:12:12.086Z,71.80
2022-10-13T02:14:42.354Z,72.00
2022-10-13T02:17:11.627Z,72.20
2022-10-13T02:19:41.446Z,72.80
2022-10-13T02:22:11.695Z,72.80
2022-10-13T02:24:39.243Z,72.60
2022-10-13T02:27:07.880Z,72.00
2022-10-13T02:29:47.999Z,71.50
2022-10-13T02:32:18.748Z,71.80
2022-10-13T02:34:46.295Z,72.40
2022-10-13T02:37:13.965Z,72.30
2022-10-13T02:39:41.449Z,72.30
2022-10-13T02:42:11.919Z,72.30
2022-10-13T02:44:40.135Z,72.30
2022-10-13T02:47:07.545Z,71.80
2022-10-13T02:49:36.309Z,72.30
2022-10-13T02:52:04.814Z,72.40
2022-10-13T02:54:32.213Z,71.80
2022-10-13T02:56:59.543Z,71.60
2022-10-13T02:59:26.952Z,72.00
2022-10-13T03:01:54.280Z,72.10
2022-10-13T03:04:22.291Z,72.40
2022-10-13T03:06:50.954Z,72.30
2022-10-13T03:09:18.302Z,71.70
2022-10-13T03:11:45.720Z,72.10
2022-10-13T03:14:13.243Z,72.80
2022-10-13T03:16:40.565Z,72.60
2022-10-13T03:19:10.703Z,72.60
2022-10-13T03:21:38.531Z,72.70
2022-10-13T03:24:07.571Z,72.80
2022-10-13T03:26:35.143Z,72.70
2022-10-13T03:29:03.306Z,72.70
2022-10-13T03:31:30.964Z,72.80
2022-10-13T03:34:03.045Z,72.80
2022-10-13T03:36:30.372Z,72.80
2022-10-13T03:38:57.787Z,72.60
2022-10-13T03:41:26.575Z,72.20
2022-10-13T03:43:54.443Z,71.90
2022-10-13T03:46:24.610Z,71.90
2022-10-13T03:48:51.942Z,72.30
2022-10-13T03:51:20.892Z,72.50
2022-10-13T03:53:50.718Z,72.70
2022-10-13T03:56:21.033Z,72.80
2022-10-13T03:58:54.739Z,73.00
2022-10-13T04:01:23.797Z,73.20
2022-10-13T04:03:53.861Z,73.50
2022-10-13T04:06:21.661Z,73.10
2022-10-13T04:08:49.530Z,73.50
2022-10-13T04:11:17.747Z,73.60
2022-10-13T04:13:52.986Z,73.60
2022-10-13T04:16:23.399Z,73.50
2022-10-13T04:18:52.532Z,73.50
2022-10-13T04:21:19.917Z,73.50
2022-10-13T04:23:47.431Z,73.70
2022-10-13T04:26:16.892Z,73.80
2022-10-13T04:28:45.615Z,74.00
2022-10-13T04:31:14.774Z,73.90
2022-10-13T04:33:42.220Z,73.50
2022-10-13T04:36:12.663Z,73.50
2022-10-13T04:38:40.086Z,73.20
2022-10-13T04:41:09.112Z,73.60
2022-10-13T04:43:36.684Z,73.80
2022-10-13T04:46:05.495Z,74.10
2022-10-13T04:48:34.344Z,74.00
2022-10-13T04:51:02.838Z,74.00
2022-10-13T04:53:31.354Z,74.20
2022-10-13T04:56:02.203Z,74.00
2022-10-13T04:58:30.062Z,73.90
2022-10-13T05:01:02.620Z,73.60
2022-10-13T05:03:30.124Z,73.60
2022-10-13T05:05:59.245Z,73.80
2022-10-13T05:08:26.585Z,74.00
2022-10-13T05:10:55.187Z,74.00
2022-10-13T05:13:22.590Z,74.10
2022-10-13T05:15:50.732Z,74.10
2022-10-13T05:18:22.153Z,74.10
2022-10-13T05:20:49.750Z,73.80
2022-10-13T05:23:18.432Z,73.60
2022-10-13T05:25:45.804Z,73.30
2022-10-13T05:28:15.337Z,74.00
2022-10-13T05:30:42.825Z,73.90
2022-10-13T05:33:10.218Z,73.50
2022-10-13T05:35:37.591Z,73.50
2022-10-13T05:38:04.908Z,73.60
2022-10-13T05:40:33.621Z,73.90
2022-10-13T05:43:01.579Z,73.60
2022-10-13T05:45:32.192Z,73.90
2022-10-13T05:47:59.511Z,73.80
2022-10-13T05:50:26.887Z,73.70
2022-10-13T05:52:54.266Z,73.80
2022-10-13T05:55:21.586Z,74.10
2022-10-13T05:57:52.677Z,73.70
2022-10-13T06:00:20.539Z,74.00
2022-10-13T06:02:52.246Z,74.00
2022-10-13T06:05:22.108Z,74.00
2022-10-13T06:07:54.514Z,74.30
2022-10-13T06:10:22.755Z,74.30
2022-10-13T06:12:51.500Z,74.30
2022-10-13T06:15:18.825Z,74.50
2022-10-13T06:17:46.205Z,74.30
2022-10-13T06:20:13.624Z,74.40
2022-10-13T06:22:40.951Z,74.40
2022-10-13T06:25:09.403Z,74.50
2022-10-13T06:27:36.768Z,74.40
2022-10-13T06:30:06.439Z,74.10
2022-10-13T06:32:34.022Z,74.40
2022-10-13T06:35:01.358Z,74.30
2022-10-13T06:37:28.686Z,74.30
2022-10-13T06:39:56.040Z,74.50
2022-10-13T06:42:23.591Z,74.10
2022-10-13T06:45:10.738Z,74.40
2022-10-13T06:47:41.036Z,74.50
2022-10-13T06:50:09.063Z,74.70
2022-10-13T06:52:36.501Z,74.70
2022-10-13T06:55:04.275Z,74.60
2022-10-13T06:57:33.145Z,74.70
2022-10-13T07:00:07.109Z,74.60
2022-10-13T07:02:35.841Z,74.60
2022-10-13T07:05:03.462Z,74.60
2022-10-13T07:07:30.812Z,74.60
2022-10-13T07:09:58.217Z,74.90
2022-10-13T07:12:25.582Z,74.70
2022-10-13T07:14:52.947Z,74.90
2022-10-13T07:17:20.636Z,74.90
2022-10-13T07:19:49.646Z,74.80
2022-10-13T07:22:17.008Z,74.80
2022-10-13T07:24:44.779Z,74.40
2022-10-13T07:27:12.312Z,74.40
2022-10-13T07:29:39.741Z,74.40
2022-10-13T07:32:07.230Z,74.80
2022-10-13T07:34:34.667Z,74.80
2022-10-13T07:37:03.358Z,75.00
2022-10-13T07:39:32.868Z,75.00
2022-10-13T07:42:00.888Z,74.80
2022-10-13T07:44:28.499Z,74.30
2022-10-13T07:46:55.851Z,73.60
2022-10-13T07:49:23.359Z,73.00
2022-10-13T07:51:50.689Z,72.40
2022-10-13T07:54:23.798Z,72.30
2022-10-13T07:56:56.012Z,71.80
2022-10-13T07:59:23.659Z,72.10
2022-10-13T08:01:51.224Z,72.00
2022-10-13T08:04:18.726Z,71.60
2022-10-13T08:06:46.042Z,70.90
2022-10-13T08:09:13.498Z,70.90
2022-10-13T08:11:42.173Z,70.30
2022-10-13T08:14:12.072Z,69.90
2022-10-13T08:16:40.387Z,68.80
2022-10-13T08:19:07.821Z,67.80
2022-10-13T08:24:25.388Z,66.60
2022-10-13T08:26:54.097Z,65.90
2022-10-13T08:29:23.547Z,65.00
2022-10-13T08:31:52.612Z,65.00
2022-10-13T08:34:20.594Z,64.20
2022-10-13T08:36:48.799Z,64.00
2022-10-13T08:39:16.183Z,63.40
2022-10-13T08:41:44.475Z,63.30
2022-10-13T08:45:05.918Z,62.70
2022-10-13T08:47:15.854Z,62.30
2022-10-13T08:49:43.831Z,62.70
2022-10-13T08:52:19.022Z,62.50
2022-10-13T08:54:46.811Z,62.80
2022-10-13T08:57:15.843Z,62.80
2022-10-13T08:59:44.574Z,62.40
2022-10-13T09:02:14.777Z,62.00
2022-10-13T09:04:47.349Z,61.60
2022-10-13T09:07:18.823Z,61.40
2022-10-13T09:09:51.736Z,61.10
2022-10-13T09:12:24.239Z,61.20
2022-10-13T09:15:01.482Z,60.90
2022-10-13T09:17:30.005Z,60.80
2022-10-13T09:20:00.702Z,60.90
2022-10-13T09:22:30.632Z,61.20
2022-10-13T09:25:18.672Z,60.90
2022-10-13T09:27:50.482Z,60.70
2022-10-13T09:30:32.869Z,61.10
2022-10-13T09:33:19.004Z,61.30
2022-10-13T09:35:48.238Z,61.60
2022-10-13T09:38:17.795Z,61.70
2022-10-13T09:40:57.949Z,62.00
2022-10-13T09:43:31.070Z,62.20
2022-10-13T09:46:01.001Z,62.10
2022-10-13T09:48:32.413Z,62.20
2022-10-13T09:50:59.805Z,62.40
2022-10-13T09:53:32.569Z,63.00
2022-10-13T09:56:17.325Z,63.20
2022-10-13T09:58:48.721Z,63.30
2022-10-13T10:01:24.111Z,63.30
2022-10-13T10:03:52.021Z,63.40
2022-10-13T10:06:21.723Z,63.70
2022-10-13T10:09:03.282Z,63.70
2022-10-13T10:11:37.464Z,63.50
2022-10-13T10:14:15.704Z,63.50
2022-10-13T10:16:48.140Z,63.50
2022-10-13T10:19:22.315Z,63.20
2022-10-13T10:21:57.922Z,63.00
2022-10-13T10:24:33.935Z,63.20
2022-10-13T10:27:06.515Z,63.20
2022-10-13T10:29:45.568Z,63.10
2022-10-13T10:32:27.913Z,63.20
2022-10-13T10:34:59.820Z,62.90
2022-10-13T10:37:44.389Z,62.60
2022-10-13T10:40:24.163Z,62.60
2022-10-13T10:43:10.902Z,62.20
2022-10-13T10:45:39.675Z,62.50
2022-10-13T10:48:24.470Z,61.60
2022-10-13T10:50:53.245Z,61.50
2022-10-13T10:53:26.743Z,61.60
2022-10-13T10:55:59.039Z,61.10
2022-10-13T10:58:37.647Z,61.30
2022-10-13T11:01:19.749Z,61.00
2022-10-13T11:03:54.130Z,60.80
2022-10-13T11:06:26.170Z,60.60
2022-10-13T11:08:55.366Z,60.60
2022-10-13T11:11:39.812Z,60.70
2022-10-13T11:14:29.811Z,60.50
2022-10-13T11:17:20.281Z,60.30
2022-10-13T11:19:49.602Z,60.00
2022-10-13T11:22:19.964Z,60.40
2022-10-13T11:24:59.252Z,60.60
2022-10-13T11:27:42.089Z,60.60
2022-10-13T11:30:55.371Z,60.30
2022-10-13T11:33:51.309Z,59.60
2022-10-13T11:36:51.534Z,58.90
2022-10-13T11:39:52.436Z,58.90
2022-10-13T11:42:42.741Z,58.80
2022-10-13T11:45:24.813Z,57.60
2022-10-13T11:48:16.677Z,57.70
2022-10-13T11:50:58.289Z,58.00
2022-10-13T11:53:32.878Z,57.90
2022-10-13T11:56:04.238Z,56.60
2022-10-13T11:58:32.855Z,56.40
2022-10-13T12:01:03.376Z,56.60
2022-10-13T12:03:32.795Z,55.90
2022-10-13T12:06:04.634Z,56.10
2022-10-13T12:08:36.363Z,55.80
2022-10-13T12:11:07.595Z,55.70
2022-10-13T12:13:36.496Z,55.10
2022-10-13T12:16:06.591Z,54.90
2022-10-13T12:18:36.186Z,55.10
2022-10-13T12:21:11.731Z,55.30
2022-10-13T12:23:41.876Z,55.10
2022-10-13T12:26:15.650Z,54.40
2022-10-13T12:28:52.227Z,54.80
2022-10-13T12:31:22.476Z,54.50
2022-10-13T12:33:54.624Z,55.40
2022-10-13T12:36:26.654Z,55.70
2022-10-13T12:38:59.670Z,54.40
2022-10-13T12:41:29.453Z,53.70
2022-10-13T12:43:59.908Z,53.70
2022-10-13T12:46:42.289Z,53.40
2022-10-13T12:49:14.784Z,53.40
2022-10-13T12:51:44.768Z,53.70
2022-10-13T12:54:19.594Z,53.50
2022-10-13T12:56:47.239Z,53.40
2022-10-13T12:59:17.454Z,53.10
2022-10-13T13:01:53.889Z,53.90
2022-10-13T13:04:47.207Z,53.70
2022-10-13T13:07:31.758Z,53.30
2022-10-13T13:10:15.964Z,54.00
2022-10-13T13:12:44.326Z,53.80
2022-10-13T13:15:21.027Z,54.50
2022-10-13T13:18:03.559Z,54.10
2022-10-13T13:20:33.225Z,54.30
2022-10-13T13:23:01.173Z,55.30
2022-10-13T13:25:29.966Z,55.00
2022-10-13T13:27:57.478Z,55.40
2022-10-13T13:30:25.123Z,55.20
2022-10-13T13:32:52.475Z,55.40
2022-10-13T13:35:19.929Z,55.50
2022-10-13T13:37:49.918Z,55.70
2022-10-13T13:40:19.885Z,56.00
2022-10-13T13:42:48.887Z,56.10
2022-10-13T13:45:18.391Z,56.40
2022-10-13T13:47:46.244Z,56.40
2022-10-13T13:50:17.462Z,56.80
2022-10-13T13:52:47.896Z,56.40
2022-10-13T13:55:15.612Z,56.80
2022-10-13T13:57:43.676Z,57.00
2022-10-13T14:00:15.230Z,56.80
2022-10-13T14:02:44.081Z,57.00
2022-10-13T14:05:12.356Z,57.20
2022-10-13T14:07:39.874Z,57.50
2022-10-13T14:10:09.871Z,57.10
2022-10-13T14:12:37.434Z,57.30
2022-10-13T14:15:05.473Z,57.10
2022-10-13T14:17:34.264Z,57.40
2022-10-13T14:20:01.695Z,57.00
2022-10-13T14:22:29.165Z,56.70
2022-10-13T14:24:56.595Z,56.60
2022-10-13T14:27:24.060Z,56.80
2022-10-13T14:29:53.197Z,56.50
2022-10-13T14:32:20.756Z,55.30
2022-10-13T14:34:49.676Z,55.20
2022-10-13T14:37:20.890Z,54.10
2022-10-13T14:39:50.694Z,53.70
2022-10-13T14:42:18.096Z,53.90
2022-10-13T14:44:45.517Z,54.60
2022-10-13T14:47:12.941Z,54.30
2022-10-13T14:49:40.351Z,54.00
2022-10-13T14:52:09.869Z,54.40
2022-10-13T14:54:40.080Z,54.20
2022-10-13T14:57:15.486Z,54.10
2022-10-13T14:59:43.220Z,54.20
2022-10-13T15:02:11.088Z,54.30
2022-10-13T15:04:38.682Z,54.30
2022-10-13T15:07:06.356Z,54.00
2022-10-13T15:09:52.155Z,54.00
2022-10-13T15:12:24.993Z,54.50
2022-10-13T15:14:52.367Z,53.80
2022-10-13T15:17:19.809Z,54.40
2022-10-13T15:19:47.244Z,54.50
2022-10-13T15:22:15.094Z,54.80
2022-10-13T15:24:43.850Z,55.10
2022-10-13T15:27:11.198Z,54.90
2022-10-13T15:29:38.609Z,55.10
2022-10-13T15:32:11.053Z,55.10
2022-10-13T15:34:39.052Z,55.30
2022-10-13T15:37:06.533Z,55.80
2022-10-13T15:39:34.057Z,55.70
2022-10-13T15:42:02.788Z,55.80
2022-10-13T15:44:50.987Z,56.30
2022-10-13T15:47:18.636Z,56.20
2022-10-13T15:49:46.038Z,56.40
2022-10-13T15:52:13.511Z,56.50
2022-10-13T15:54:40.974Z,56.80
2022-10-13T15:57:09.957Z,57.10
2022-10-13T15:59:37.378Z,57.40
2022-10-13T16:02:04.898Z,57.50
2022-10-13T16:04:37.078Z,57.80
2022-10-13T16:07:05.044Z,57.90
2022-10-13T16:09:32.395Z,58.10
2022-10-13T16:11:59.738Z,58.50
2022-10-13T16:14:28.484Z,58.60
2022-10-13T16:16:58.095Z,58.80
2022-10-13T16:19:25.470Z,58.90
2022-10-13T16:21:52.841Z,59.20
2022-10-13T16:24:20.496Z,59.50
2022-10-13T16:26:47.827Z,59.60
2022-10-13T16:29:15.438Z,59.60
2022-10-13T16:31:44.186Z,60.00
2022-10-13T16:34:11.532Z,59.90
2022-10-13T16:36:38.886Z,60.00
2022-10-13T16:39:06.258Z,60.50
2022-10-13T16:41:33.613Z,60.60
2022-10-13T16:44:00.997Z,60.50
2022-10-13T16:46:28.455Z,60.50
2022-10-13T16:48:57.228Z,60.50
2022-10-13T16:51:25.470Z,61.60
2022-10-13T16:53:54.430Z,61.90
2022-10-13T16:56:23.522Z,61.40
2022-10-13T16:58:53.182Z,61.60
2022-10-13T17:01:21.171Z,61.90
2022-10-13T17:03:50.484Z,62.70
2022-10-13T17:06:20.703Z,63.20
2022-10-13T17:08:54.784Z,63.40
2022-10-13T17:11:23.669Z,62.60
2022-10-13T17:13:51.391Z,62.90
2022-10-13T17:16:19.283Z,62.80
2022-10-13T17:18:46.691Z,62.60
2022-10-13T17:21:16.962Z,62.70
2022-10-13T17:23:48.568Z,64.40
2022-10-13T17:26:17.861Z,64.30
2022-10-13T17:28:45.714Z,64.60
2022-10-13T17:31:15.038Z,65.00
2022-10-13T17:33:43.168Z,64.50
2022-10-13T17:36:13.914Z,64.30
2022-10-13T17:38:41.947Z,64.40
2022-10-13T17:41:11.713Z,65.00
2022-10-13T17:43:48.128Z,65.30
2022-10-13T17:46:35.611Z,64.60
2022-10-13T17:49:04.797Z,64.20
2022-10-13T17:51:32.230Z,64.40
2022-10-13T17:54:00.443Z,64.30
2022-10-13T17:56:29.807Z,64.70
2022-10-13T17:58:57.575Z,64.80
2022-10-13T18:01:27.695Z,65.10
2022-10-13T18:03:56.889Z,65.10
2022-10-13T18:06:27.999Z,66.00
2022-10-13T18:08:55.381Z,65.60
2022-10-13T18:11:24.643Z,66.30
2022-10-13T18:13:53.530Z,66.90
2022-10-13T18:16:23.014Z,66.80
2022-10-13T18:18:51.863Z,67.30
2022-10-13T18:21:22.636Z,67.60
2022-10-13T18:23:54.606Z,67.80
2022-10-13T18:26:22.311Z,67.60
2022-10-13T18:28:51.030Z,67.70
2022-10-13T18:31:24.255Z,67.80
2022-10-13T18:33:53.861Z,67.60
2022-10-13T18:36:24.265Z,67.90
2022-10-13T18:38:52.406Z,68.30
2022-10-13T18:41:22.070Z,68.40
2022-10-13T18:43:49.659Z,68.60
2022-10-13T18:46:19.077Z,68.00
2022-10-13T18:48:49.321Z,68.40
2022-10-13T18:51:18.539Z,68.20
2022-10-13T18:53:47.767Z,68.60
2022-10-13T18:56:19.028Z,68.90
2022-10-13T18:58:47.031Z,68.60
2022-10-13T19:01:19.873Z,68.70
2022-10-13T19:03:50.928Z,68.30
2022-10-13T19:06:20.392Z,68.60
2022-10-13T19:08:55.115Z,69.00
2022-10-13T19:11:23.099Z,69.30
2022-10-13T19:13:51.539Z,69.20
2022-10-13T19:16:21.158Z,69.20
2022-10-13T19:18:50.839Z,69.40
2022-10-13T19:21:19.366Z,68.80
2022-10-13T19:23:46.884Z,68.10
2022-10-13T19:26:21.485Z,67.70
2022-10-13T19:28:48.983Z,68.40
2022-10-13T19:31:18.660Z,68.40
2022-10-13T19:33:47.209Z,68.30
2022-10-13T19:36:23.190Z,68.60
2022-10-13T19:38:52.678Z,68.30
2022-10-13T19:41:20.301Z,68.10
2022-10-13T19:43:47.812Z,69.00
2022-10-13T19:46:15.942Z,69.50
2022-10-13T19:48:44.722Z,69.40
2022-10-13T19:51:12.962Z,68.60
2022-10-13T19:53:42.124Z,69.10
2022-10-13T19:56:18.459Z,69.60
2022-10-13T19:58:45.821Z,70.30
2022-10-13T20:01:13.273Z,70.30
2022-10-13T20:03:40.790Z,69.50
2022-10-13T20:06:09.313Z,68.60
2022-10-13T20:08:39.159Z,69.30
2022-10-13T20:11:09.037Z,70.10
2022-10-13T20:13:37.296Z,70.40
2022-10-13T20:16:06.833Z,69.00
2022-10-13T20:18:35.374Z,70.30
2022-10-13T20:21:03.554Z,71.20
2022-10-13T20:23:31.621Z,70.90
2022-10-13T20:26:02.869Z,69.50
2022-10-13T20:28:42.725Z,70.50
2022-10-13T20:31:12.759Z,71.00
2022-10-13T20:33:40.978Z,70.80
2022-10-13T20:36:11.458Z,71.30
2022-10-13T20:38:39.061Z,71.80
2022-10-13T20:41:07.591Z,72.00
2022-10-13T20:43:37.089Z,70.80
2022-10-13T20:46:06.767Z,70.80
2022-10-13T20:48:57.903Z,71.00
2022-10-13T20:51:23.933Z,70.40
2022-10-13T20:53:51.832Z,70.30
2022-10-13T20:56:20.926Z,71.10
2022-10-13T20:58:50.122Z,72.00
2022-10-13T21:01:18.300Z,70.90
2022-10-13T21:03:46.350Z,70.00
2022-10-13T21:06:14.651Z,70.00
2022-10-13T21:08:45.198Z,70.80
2022-10-13T21:11:14.676Z,71.50
2022-10-13T21:13:43.303Z,71.80
2022-10-13T21:16:13.946Z,72.30
2022-10-13T21:18:44.442Z,71.30
2022-10-13T21:21:12.133Z,71.10
2022-10-13T21:23:40.850Z,70.60
2022-10-13T21:26:09.450Z,70.20
2022-10-13T21:28:38.945Z,69.90
2022-10-13T21:31:08.316Z,69.90
2022-10-13T21:33:39.095Z,71.00
2022-10-13T21:36:07.683Z,71.60
2022-10-13T21:38:35.211Z,71.60
2022-10-13T21:41:04.473Z,72.10
2022-10-13T21:43:32.078Z,72.20
2022-10-13T21:46:08.255Z,71.10
2022-10-13T21:48:40.890Z,70.50
2022-10-13T21:51:12.770Z,70.10
2022-10-13T21:53:40.208Z,71.50
2022-10-13T21:56:09.965Z,71.00
2022-10-13T21:58:37.778Z,70.70
2022-10-13T22:01:06.155Z,70.70
2022-10-13T22:03:34.814Z,71.10
2022-10-13T22:06:08.386Z,72.50
2022-10-13T22:08:39.094Z,71.50
2022-10-13T22:11:16.566Z,71.50
2022-10-13T22:13:44.218Z,72.70
2022-10-13T22:16:14.354Z,73.10
2022-10-13T22:18:42.182Z,73.20
2022-10-13T22:21:13.527Z,73.50
2022-10-13T22:23:41.828Z,73.60
2022-10-13T22:26:09.960Z,72.30
2022-10-13T22:28:38.072Z,71.70
2022-10-13T22:31:06.210Z,72.60
2022-10-13T22:33:35.355Z,72.00
2022-10-13T22:36:07.095Z,72.70
2022-10-13T22:38:36.295Z,71.50
2022-10-13T22:41:05.624Z,72.20
2022-10-13T22:43:33.729Z,72.90
2022-10-13T22:46:12.145Z,71.90
2022-10-13T22:48:40.947Z,72.40
2022-10-13T22:51:16.979Z,73.20
2022-10-13T22:53:45.956Z,72.00
2022-10-13T22:56:16.445Z,71.70
2022-10-13T22:58:44.399Z,72.00
2022-10-13T23:01:13.891Z,71.80
2022-10-13T23:03:41.964Z,71.60
2022-10-13T23:06:13.889Z,72.20
2022-10-13T23:08:41.892Z,72.80
2022-10-13T23:11:10.922Z,72.40
2022-10-13T23:13:38.387Z,72.70
2022-10-13T23:16:08.629Z,71.80
2022-10-13T23:18:38.026Z,72.30
2022-10-13T23:21:06.244Z,72.80
2022-10-13T23:23:34.027Z,73.50
2022-10-13T23:26:03.001Z,73.30
2022-10-13T23:28:32.702Z,73.20
2022-10-13T23:31:02.718Z,72.30
2022-10-13T23:33:30.617Z,73.10
2022-10-13T23:36:00.091Z,73.50
2022-10-13T23:38:29.029Z,73.90
2022-10-13T23:41:01.411Z,74.10
2022-10-13T23:43:28.765Z,73.60
2022-10-13T23:45:57.584Z,73.80
2022-10-13T23:48:25.009Z,74.00
2022-10-13T23:50:52.422Z,73.90
2022-10-13T23:53:19.854Z,74.10
2022-10-13T23:55:47.225Z,73.70
2022-10-13T23:58:14.756Z,72.80
